aviador You're here:

SAWG Decoded Metar

RIO GALLEGOS in ARGENTINA
Report Time2017-08-19 20:00:00
UTC Time2017-08-19 20:25:17
Flight Rules vfr VFR
Wind250° at 22 kt
W.Decomp.*RWY 25: 21.5 kt HW 4.6 kt LCW
W.Rank250° ranks 2
Current wind is above 250° avg. (15.5)
Visibility9999 m
Phenomena:Vicinity showers
Clouds:Scattered TCU 025 Hf
Scattered 030 Hf
Expected CloudBase > 3,200 ft AGL from Temp-Dew spread
CeilingNone
Temp06°C (ISA -9)
Dew Point-2°C (57% RH)
AAT-4.2°C
QNH1001 hPa
Density Alt-525 ft
Elevation62 ft
Report Wrong Elevation
Raw Report
SAWG 192000Z 25022KT 9999 VCSH SCT025TCU SCT030 06/M02 Q1001=

Extra information for SAWG:More info

Metar Taf Metar & Taf Last 4 Metars F.Rules Stats Wind Profile Meteogram Temp Stats Airport Information Weather charts Add Link Nearby VenuesMetar ALERT Operation Metar Decoded Social comments